Clifford A. Barnes — WRN5495 — position and weather

sailwx.info

Track history (hours):
 
Tides and Currents Weather Stations Pressure Air Temp Water Temp Dewpoint Dewpoint Depression Visibility Wind Speed Wind Dir Waves Ship Positions

Oceanographic research ship Clifford A. Barnes (USA)

Ship's website: http://www.ocean.washington.edu/vessels/CAB/cab.html

Detailed information on ship capabilities available from University of Delaware's Ocean Information Center.

Owner: UNIVERSITY OF WASHINGTON, SEATTLE, WA. More information available from US FCC via Universal Licensing System.

Last reported at 2017-Jul-16 03:58 UTC. Time now 2017-Jul-24 08:33 UTC.
Position N 47°39' W 122°19'.
Warning: this ship's position is 8 days out of date.

Length 22 m.

Type: Other ship. MMSI: 366918910.

Date/timePositionNaut miles runAvg speedWind from/ knotsBaromVisibWave heightAir tempDewpointWater temp
2017-Jul-16 03:58N 47°39' W 122°19'0 0.0
2017-Jul-16 03:23N 47°39' W 122°19'0 0.0
2017-Jul-16 02:50N 47°39' W 122°19'0 0.0
2017-Jul-16 02:18N 47°39' W 122°19'0 0.0
2017-Jul-16 01:58N 47°39' W 122°19'0 0.0
2017-Jul-16 01:29N 47°39' W 122°19'0 0.0
2017-Jul-16 01:00N 47°39' W 122°19'0 0.0
2017-Jul-16 00:28N 47°39' W 122°19'0 0.0
2017-Jul-15 23:56N 47°39' W 122°19'0 0.0
2017-Jul-15 23:28N 47°39' W 122°19'0 0.0
2017-Jul-15 23:00N 47°39' W 122°19'0 0.9
2017-Jul-15 22:31N 47°39' W 122°19'2 4.2
2017-Jul-15 22:00N 47°40' W 122°22'1 2.3
2017-Jul-15 21:30N 47°40' W 122°24'1 2.8
2017-Jul-15 21:00N 47°40' W 122°26'4 9.0
2017-Jul-15 20:31N 47°36' W 122°26'4 8.5
2017-Jul-15 20:00N 47°32' W 122°29'5 9.6
2017-Jul-15 19:30N 47°27' W 122°31'5 9.7
2017-Jul-15 19:00N 47°23' W 122°32'6 9.4
2017-Jul-15 18:23N 47°17' W 122°33'7 1.8
2017-Jul-15 14:41N 47°11' W 122°38'6 8.0
2017-Jul-15 13:57N 47°16' W 122°33'4 8.8
2017-Jul-15 13:30N 47°20' W 122°32'2 3.4
2017-Jul-15 13:00N 47°19' W 122°30'4 0.4
2017-Jul-15 02:07N 47°16' W 122°26'0 3.1
2017-Jul-15 02:00N 47°16' W 122°26'4 8.4
2017-Jul-15 01:31N 47°20' W 122°27'5 9.1
2017-Jul-15 01:01N 47°23' W 122°22'1 1.5
2017-Jul-15 00:30N 47°24' W 122°22'4 7.7
2017-Jul-15 00:01N 47°27' W 122°24'2 3.6
2017-Jul-14 23:30N 47°29' W 122°26'4 8.9
2017-Jul-14 23:00N 47°33' W 122°27'1 1.8
2017-Jul-14 22:30N 47°34' W 122°27'4 8.5
2017-Jul-14 22:00N 47°38' W 122°29'4 8.9
2017-Jul-14 21:30N 47°43' W 122°28'4 8.3
2017-Jul-14 21:01N 47°47' W 122°28'4 8.4
2017-Jul-14 20:31N 47°51' W 122°29'4 7.9
2017-Jul-14 20:00N 47°55' W 122°31'15 5.8
2017-Jul-14 17:29N 47°44' W 122°46'3 6.9
2017-Jul-14 17:00N 47°41' W 122°48'4 8.9
2017-Jul-14 16:31N 47°38' W 122°54'4 8.7
2017-Jul-14 16:00N 47°35' W 122°58'4 8.6
2017-Jul-14 15:29N 47°31' W 123°02'5 8.8
2017-Jul-14 14:57N 47°27' W 123°05'5 0.3
2017-Jul-13 22:21N 47°22' W 123°07'1 3.4
2017-Jul-13 21:57N 47°24' W 123°08'2 4.5
2017-Jul-13 21:29N 47°26' W 123°06'0 0.0
2017-Jul-13 21:00N 47°26' W 123°06'4 8.5
2017-Jul-13 20:30N 47°29' W 123°04'2 3.7
2017-Jul-13 20:00N 47°31' W 123°02'2 4.4
2017-Jul-13 19:30N 47°33' W 123°01'4 7.8
2017-Jul-13 19:00N 47°36' W 122°57'1 2.8
2017-Jul-13 18:30N 47°37' W 122°56'4 7.9
2017-Jul-13 18:00N 47°40' W 122°52'2 4.6
2017-Jul-13 17:30N 47°41' W 122°49'29 1.3
2017-Jul-12 19:08N 48°10' W 122°43'3 5.5
2017-Jul-12 18:40N 48°10' W 122°47'1 5.3
2017-Jul-12 18:28N 48°11' W 122°49'2 4.3
2017-Jul-12 17:57N 48°11' W 122°52'1 2.6
2017-Jul-12 17:30N 48°12' W 122°53'3 6.9
2017-Jul-12 17:00N 48°14' W 122°57'3 5.9
2017-Jul-12 16:27N 48°16' W 123°01'0 0.9
2017-Jul-12 16:00N 48°16' W 123°02'20 3.8
2017-Jul-12 10:44N 48°24' W 122°34'0 0.0
2017-Jul-12 10:30N 48°24' W 122°34'0 0.0
2017-Jul-12 09:59N 48°24' W 122°34'0 0.0
2017-Jul-12 09:03N 48°24' W 122°34'0 0.0
2017-Jul-12 08:58N 48°24' W 122°34'20 1.8
2017-Jul-11 21:54N 48°05' W 122°27'4 8.4
2017-Jul-11 21:23N 48°03' W 122°21'3 4.2
2017-Jul-11 20:46N 48°01' W 122°18'2 7.0
2017-Jul-11 20:30N 47°59' W 122°18'4 8.2
2017-Jul-11 20:00N 47°56' W 122°20'3 6.1
2017-Jul-11 19:30N 47°53' W 122°22'0 0.3
2017-Jul-11 19:00N 47°53' W 122°22'4 7.6
2017-Jul-11 18:30N 47°49' W 122°25'5 9.1
2017-Jul-11 18:00N 47°45' W 122°26'2 4.7
2017-Jul-11 17:30N 47°42' W 122°27'0 0.2
2017-Jul-11 17:00N 47°42' W 122°27'1 1.2
2017-Jul-11 16:30N 47°42' W 122°27'3 5.7
2017-Jul-11 16:00N 47°40' W 122°24'0 0.9
2017-Jul-11 15:30N 47°40' W 122°23'2 4.6
2017-Jul-11 15:00N 47°39' W 122°20'1 2.0
2017-Jul-11 14:29N 47°39' W 122°19'  
2017-Jul-09 00:41N 47°39' W 122°19'0 0.3
2017-Jul-09 00:30N 47°39' W 122°19'2 5.0
2017-Jul-09 00:00N 47°40' W 122°22'1 2.1
2017-Jul-08 23:31N 47°40' W 122°24'1 2.3
2017-Jul-08 23:00N 47°41' W 122°25'2 3.3
2017-Jul-08 22:30N 47°39' W 122°27'4 7.4
2017-Jul-08 22:00N 47°37' W 122°22'0 0.2
2017-Jul-08 21:30N 47°37' W 122°22'1 2.6
2017-Jul-08 21:00N 47°36' W 122°23'3 5.3
2017-Jul-08 20:30N 47°34' W 122°25'0 0.6
2017-Jul-08 20:00N 47°34' W 122°25'0 0.4
2017-Jul-08 19:30N 47°34' W 122°25'1 1.9
2017-Jul-08 19:00N 47°33' W 122°27'3 6.8
2017-Jul-08 18:30N 47°31' W 122°29'3 6.7
2017-Jul-08 18:00N 47°27' W 122°31'3 5.4
2017-Jul-08 17:27N 47°24' W 122°32'4 9.7
2017-Jul-08 17:00N 47°20' W 122°33'3 6.4
2017-Jul-08 16:30N 47°18' W 122°29'3 0.2
2017-Jul-08 01:31N 47°16' W 122°26'0 2.5
2017-Jul-08 01:30N 47°16' W 122°26'4 8.2
2017-Jul-08 01:00N 47°18' W 122°30'2 4.2
2017-Jul-08 00:26N 47°17' W 122°33'4 8.7
2017-Jul-07 23:59N 47°13' W 122°35'3 0.8
2017-Jul-07 20:11N 47°11' W 122°38'2 7.3
2017-Jul-07 19:50N 47°13' W 122°35'3 9.7
2017-Jul-07 19:30N 47°16' W 122°34'4 6.3
2017-Jul-07 18:54N 47°19' W 122°31'1 1.8
2017-Jul-07 18:30N 47°19' W 122°30'0 0.3
2017-Jul-07 18:00N 47°19' W 122°30'0 0.5
2017-Jul-07 17:30N 47°19' W 122°29'0 0.4
2017-Jul-07 17:00N 47°19' W 122°30'4 0.4
2017-Jul-07 07:39N 47°16' W 122°26'0 0.0
2017-Jul-07 07:09N 47°16' W 122°26'0 0.0
2017-Jul-07 06:03N 47°16' W 122°26'0 0.0
2017-Jul-07 05:57N 47°16' W 122°26'0 0.0
2017-Jul-07 00:20N 47°16' W 122°26'2 4.7
2017-Jul-07 00:00N 47°17' W 122°27'2 3.8
2017-Jul-06 23:30N 47°18' W 122°29'1 4.9
2017-Jul-06 23:15N 47°19' W 122°30'  
Track history (hours):
 
Tides and Currents Weather Stations Pressure Air Temp Water Temp Dewpoint Dewpoint Depression Visibility Wind Speed Wind Dir Waves Ship Positions

Oceanographic research ship Clifford A. Barnes (USA)

Ship's website: http://www.ocean.washington.edu/vessels/CAB/cab.html

Detailed information on ship capabilities available from University of Delaware's Ocean Information Center.

Owner: UNIVERSITY OF WASHINGTON, SEATTLE, WA. More information available from US FCC via Universal Licensing System.

Last reported at 2017-Jul-16 03:58 UTC. Time now 2017-Jul-24 08:33 UTC.
Position N 47°39' W 122°19'.
Warning: this ship's position is 8 days out of date.

Length 22 m.

Type: Other ship. MMSI: 366918910.

Date/timePositionNaut miles runAvg speedWind from/ knotsBaromVisibWave heightAir tempDewpointWater temp
2017-Jul-16 03:58N 47°39' W 122°19'0 0.0
2017-Jul-16 03:23N 47°39' W 122°19'0 0.0
2017-Jul-16 02:50N 47°39' W 122°19'0 0.0
2017-Jul-16 02:18N 47°39' W 122°19'0 0.0
2017-Jul-16 01:58N 47°39' W 122°19'0 0.0
2017-Jul-16 01:29N 47°39' W 122°19'0 0.0
2017-Jul-16 01:00N 47°39' W 122°19'0 0.0
2017-Jul-16 00:28N 47°39' W 122°19'0 0.0
2017-Jul-15 23:56N 47°39' W 122°19'0 0.0
2017-Jul-15 23:28N 47°39' W 122°19'0 0.0
2017-Jul-15 23:00N 47°39' W 122°19'0 0.9
2017-Jul-15 22:31N 47°39' W 122°19'2 4.2
2017-Jul-15 22:00N 47°40' W 122°22'1 2.3
2017-Jul-15 21:30N 47°40' W 122°24'1 2.8
2017-Jul-15 21:00N 47°40' W 122°26'4 9.0
2017-Jul-15 20:31N 47°36' W 122°26'4 8.5
2017-Jul-15 20:00N 47°32' W 122°29'5 9.6
2017-Jul-15 19:30N 47°27' W 122°31'5 9.7
2017-Jul-15 19:00N 47°23' W 122°32'6 9.4
2017-Jul-15 18:23N 47°17' W 122°33'7 1.8
2017-Jul-15 14:41N 47°11' W 122°38'6 8.0
2017-Jul-15 13:57N 47°16' W 122°33'4 8.8
2017-Jul-15 13:30N 47°20' W 122°32'2 3.4
2017-Jul-15 13:00N 47°19' W 122°30'4 0.4
2017-Jul-15 02:07N 47°16' W 122°26'0 3.1
2017-Jul-15 02:00N 47°16' W 122°26'4 8.4
2017-Jul-15 01:31N 47°20' W 122°27'5 9.1
2017-Jul-15 01:01N 47°23' W 122°22'1 1.5
2017-Jul-15 00:30N 47°24' W 122°22'4 7.7
2017-Jul-15 00:01N 47°27' W 122°24'2 3.6
2017-Jul-14 23:30N 47°29' W 122°26'4 8.9
2017-Jul-14 23:00N 47°33' W 122°27'1 1.8
2017-Jul-14 22:30N 47°34' W 122°27'4 8.5
2017-Jul-14 22:00N 47°38' W 122°29'4 8.9
2017-Jul-14 21:30N 47°43' W 122°28'4 8.3
2017-Jul-14 21:01N 47°47' W 122°28'4 8.4
2017-Jul-14 20:31N 47°51' W 122°29'4 7.9
2017-Jul-14 20:00N 47°55' W 122°31'15 5.8
2017-Jul-14 17:29N 47°44' W 122°46'3 6.9
2017-Jul-14 17:00N 47°41' W 122°48'4 8.9
2017-Jul-14 16:31N 47°38' W 122°54'4 8.7
2017-Jul-14 16:00N 47°35' W 122°58'4 8.6
2017-Jul-14 15:29N 47°31' W 123°02'5 8.8
2017-Jul-14 14:57N 47°27' W 123°05'5 0.3
2017-Jul-13 22:21N 47°22' W 123°07'1 3.4
2017-Jul-13 21:57N 47°24' W 123°08'2 4.5
2017-Jul-13 21:29N 47°26' W 123°06'0 0.0
2017-Jul-13 21:00N 47°26' W 123°06'4 8.5
2017-Jul-13 20:30N 47°29' W 123°04'2 3.7
2017-Jul-13 20:00N 47°31' W 123°02'2 4.4
2017-Jul-13 19:30N 47°33' W 123°01'4 7.8
2017-Jul-13 19:00N 47°36' W 122°57'1 2.8
2017-Jul-13 18:30N 47°37' W 122°56'4 7.9
2017-Jul-13 18:00N 47°40' W 122°52'2 4.6
2017-Jul-13 17:30N 47°41' W 122°49'29 1.3
2017-Jul-12 19:08N 48°10' W 122°43'3 5.5
2017-Jul-12 18:40N 48°10' W 122°47'1 5.3
2017-Jul-12 18:28N 48°11' W 122°49'2 4.3
2017-Jul-12 17:57N 48°11' W 122°52'1 2.6
2017-Jul-12 17:30N 48°12' W 122°53'3 6.9
2017-Jul-12 17:00N 48°14' W 122°57'3 5.9
2017-Jul-12 16:27N 48°16' W 123°01'0 0.9
2017-Jul-12 16:00N 48°16' W 123°02'20 3.8
2017-Jul-12 10:44N 48°24' W 122°34'0 0.0
2017-Jul-12 10:30N 48°24' W 122°34'0 0.0
2017-Jul-12 09:59N 48°24' W 122°34'0 0.0
2017-Jul-12 09:03N 48°24' W 122°34'0 0.0
2017-Jul-12 08:58N 48°24' W 122°34'20 1.8
2017-Jul-11 21:54N 48°05' W 122°27'4 8.4
2017-Jul-11 21:23N 48°03' W 122°21'3 4.2
2017-Jul-11 20:46N 48°01' W 122°18'2 7.0
2017-Jul-11 20:30N 47°59' W 122°18'4 8.2
2017-Jul-11 20:00N 47°56' W 122°20'3 6.1
2017-Jul-11 19:30N 47°53' W 122°22'0 0.3
2017-Jul-11 19:00N 47°53' W 122°22'4 7.6
2017-Jul-11 18:30N 47°49' W 122°25'5 9.1
2017-Jul-11 18:00N 47°45' W 122°26'2 4.7
2017-Jul-11 17:30N 47°42' W 122°27'0 0.2
2017-Jul-11 17:00N 47°42' W 122°27'1 1.2
2017-Jul-11 16:30N 47°42' W 122°27'3 5.7
2017-Jul-11 16:00N 47°40' W 122°24'0 0.9
2017-Jul-11 15:30N 47°40' W 122°23'2 4.6
2017-Jul-11 15:00N 47°39' W 122°20'1 2.0
2017-Jul-11 14:29N 47°39' W 122°19'  
2017-Jul-09 00:41N 47°39' W 122°19'0 0.3
2017-Jul-09 00:30N 47°39' W 122°19'2 5.0
2017-Jul-09 00:00N 47°40' W 122°22'1 2.1
2017-Jul-08 23:31N 47°40' W 122°24'1 2.3
2017-Jul-08 23:00N 47°41' W 122°25'2 3.3
2017-Jul-08 22:30N 47°39' W 122°27'4 7.4
2017-Jul-08 22:00N 47°37' W 122°22'0 0.2
2017-Jul-08 21:30N 47°37' W 122°22'1 2.6
2017-Jul-08 21:00N 47°36' W 122°23'3 5.3
2017-Jul-08 20:30N 47°34' W 122°25'0 0.6
2017-Jul-08 20:00N 47°34' W 122°25'0 0.4
2017-Jul-08 19:30N 47°34' W 122°25'1 1.9
2017-Jul-08 19:00N 47°33' W 122°27'3 6.8
2017-Jul-08 18:30N 47°31' W 122°29'3 6.7
2017-Jul-08 18:00N 47°27' W 122°31'3 5.4
2017-Jul-08 17:27N 47°24' W 122°32'4 9.7
2017-Jul-08 17:00N 47°20' W 122°33'3 6.4
2017-Jul-08 16:30N 47°18' W 122°29'3 0.2
2017-Jul-08 01:31N 47°16' W 122°26'0 2.5
2017-Jul-08 01:30N 47°16' W 122°26'4 8.2
2017-Jul-08 01:00N 47°18' W 122°30'2 4.2
2017-Jul-08 00:26N 47°17' W 122°33'4 8.7
2017-Jul-07 23:59N 47°13' W 122°35'3 0.8
2017-Jul-07 20:11N 47°11' W 122°38'2 7.3
2017-Jul-07 19:50N 47°13' W 122°35'3 9.7
2017-Jul-07 19:30N 47°16' W 122°34'4 6.3
2017-Jul-07 18:54N 47°19' W 122°31'1 1.8
2017-Jul-07 18:30N 47°19' W 122°30'0 0.3
2017-Jul-07 18:00N 47°19' W 122°30'0 0.5
2017-Jul-07 17:30N 47°19' W 122°29'0 0.4
2017-Jul-07 17:00N 47°19' W 122°30'4 0.4
2017-Jul-07 07:39N 47°16' W 122°26'0 0.0
2017-Jul-07 07:09N 47°16' W 122°26'0 0.0
2017-Jul-07 06:03N 47°16' W 122°26'0 0.0
2017-Jul-07 05:57N 47°16' W 122°26'0 0.0
2017-Jul-07 00:20N 47°16' W 122°26'2 4.7
2017-Jul-07 00:00N 47°17' W 122°27'2 3.8
2017-Jul-06 23:30N 47°18' W 122°29'1 4.9
2017-Jul-06 23:15N 47°19' W 122°30'  

Dump ship's entire track history